sensor_id;sensor_type;location;lat;lon;timestamp;P1;durP1;ratioP1;P2;durP2;ratioP2
76814;SDS011;65768;49.906;19.384;2023-04-24T00:27:27;8.50;;;5.40;;
76814;SDS011;65768;49.906;19.384;2023-04-24T01:15:30;5.10;;;3.00;;
76814;SDS011;65768;49.906;19.384;2023-04-24T01:38:55;4.10;;;2.50;;
76814;SDS011;65768;49.906;19.384;2023-04-24T02:02:20;3.70;;;2.60;;
76814;SDS011;65768;49.906;19.384;2023-04-24T03:57:04;8.50;;;4.70;;
76814;SDS011;65768;49.906;19.384;2023-04-24T06:02:34;10.10;;;5.30;;
76814;SDS011;65768;49.906;19.384;2023-04-24T06:08:04;11.80;;;6.00;;
76814;SDS011;65768;49.906;19.384;2023-04-24T06:10:49;9.00;;;6.20;;
76814;SDS011;65768;49.906;19.384;2023-04-24T06:19:36;10.10;;;4.80;;
76814;SDS011;65768;49.906;19.384;2023-04-24T06:24:58;11.70;;;5.90;;
76814;SDS011;65768;49.906;19.384;2023-04-24T06:27:45;7.30;;;4.30;;
76814;SDS011;65768;49.906;19.384;2023-04-24T06:33:21;7.20;;;4.60;;
76814;SDS011;65768;49.906;19.384;2023-04-24T06:36:05;6.30;;;4.70;;
76814;SDS011;65768;49.906;19.384;2023-04-24T06:38:50;9.00;;;4.90;;
76814;SDS011;65768;49.906;19.384;2023-04-24T06:41:45;8.50;;;5.50;;
76814;SDS011;65768;49.906;19.384;2023-04-24T06:44:26;7.50;;;5.60;;
76814;SDS011;65768;49.906;19.384;2023-04-24T06:47:03;7.40;;;5.10;;
76814;SDS011;65768;49.906;19.384;2023-04-24T06:50:01;8.70;;;5.10;;
76814;SDS011;65768;49.906;19.384;2023-04-24T06:52:32;6.20;;;4.20;;
76814;SDS011;65768;49.906;19.384;2023-04-24T06:55:23;8.10;;;4.80;;
76814;SDS011;65768;49.906;19.384;2023-04-24T06:57:57;7.00;;;3.50;;
76814;SDS011;65768;49.906;19.384;2023-04-24T07:00:29;9.20;;;4.50;;
76814;SDS011;65768;49.906;19.384;2023-04-24T07:03:14;5.80;;;3.50;;
76814;SDS011;65768;49.906;19.384;2023-04-24T07:05:46;6.30;;;3.60;;
76814;SDS011;65768;49.906;19.384;2023-04-24T07:08:15;6.90;;;4.20;;
76814;SDS011;65768;49.906;19.384;2023-04-24T07:10:45;4.80;;;4.20;;
76814;SDS011;65768;49.906;19.384;2023-04-24T07:13:17;5.20;;;3.70;;
76814;SDS011;65768;49.906;19.384;2023-04-24T07:15:49;5.80;;;3.90;;
76814;SDS011;65768;49.906;19.384;2023-04-24T07:18:25;4.20;;;3.20;;
76814;SDS011;65768;49.906;19.384;2023-04-24T07:20:54;6.80;;;3.70;;
76814;SDS011;65768;49.906;19.384;2023-04-24T07:23:25;7.20;;;3.90;;
76814;SDS011;65768;49.906;19.384;2023-04-24T07:25:53;6.50;;;4.40;;
76814;SDS011;65768;49.906;19.384;2023-04-24T07:28:21;6.20;;;3.50;;
76814;SDS011;65768;49.906;19.384;2023-04-24T07:30:49;4.90;;;3.20;;
76814;SDS011;65768;49.906;19.384;2023-04-24T07:33:18;5.80;;;4.10;;
76814;SDS011;65768;49.906;19.384;2023-04-24T07:35:46;7.20;;;3.70;;
76814;SDS011;65768;49.906;19.384;2023-04-24T07:38:18;4.30;;;2.80;;
76814;SDS011;65768;49.906;19.384;2023-04-24T07:40:49;6.20;;;4.10;;
76814;SDS011;65768;49.906;19.384;2023-04-24T07:43:19;8.00;;;4.50;;
76814;SDS011;65768;49.906;19.384;2023-04-24T07:45:49;5.60;;;3.20;;
76814;SDS011;65768;49.906;19.384;2023-04-24T07:48:18;6.90;;;3.90;;
76814;SDS011;65768;49.906;19.384;2023-04-24T07:50:47;11.20;;;10.00;;
76814;SDS011;65768;49.906;19.384;2023-04-24T07:53:15;5.40;;;3.40;;
76814;SDS011;65768;49.906;19.384;2023-04-24T07:55:46;5.90;;;3.60;;
76814;SDS011;65768;49.906;19.384;2023-04-24T07:58:15;8.10;;;4.10;;
76814;SDS011;65768;49.906;19.384;2023-04-24T08:00:43;6.40;;;3.60;;
76814;SDS011;65768;49.906;19.384;2023-04-24T08:03:12;8.50;;;3.30;;
76814;SDS011;65768;49.906;19.384;2023-04-24T08:05:40;5.50;;;3.40;;
76814;SDS011;65768;49.906;19.384;2023-04-24T08:08:09;4.30;;;3.30;;
76814;SDS011;65768;49.906;19.384;2023-04-24T08:10:37;4.80;;;2.90;;
76814;SDS011;65768;49.906;19.384;2023-04-24T08:13:06;4.80;;;2.90;;
76814;SDS011;65768;49.906;19.384;2023-04-24T08:15:34;6.90;;;3.60;;
76814;SDS011;65768;49.906;19.384;2023-04-24T08:18:11;4.20;;;3.20;;
76814;SDS011;65768;49.906;19.384;2023-04-24T08:20:41;7.80;;;4.10;;
76814;SDS011;65768;49.906;19.384;2023-04-24T08:23:10;5.70;;;3.70;;
76814;SDS011;65768;49.906;19.384;2023-04-24T08:25:38;7.00;;;3.50;;
76814;SDS011;65768;49.906;19.384;2023-04-24T08:28:07;5.20;;;3.90;;
76814;SDS011;65768;49.906;19.384;2023-04-24T08:30:37;5.40;;;3.50;;
76814;SDS011;65768;49.906;19.384;2023-04-24T08:33:06;9.10;;;4.00;;
76814;SDS011;65768;49.906;19.384;2023-04-24T08:35:34;6.80;;;3.60;;
76814;SDS011;65768;49.906;19.384;2023-04-24T08:38:03;5.40;;;3.40;;
76814;SDS011;65768;49.906;19.384;2023-04-24T08:40:32;5.20;;;3.70;;
76814;SDS011;65768;49.906;19.384;2023-04-24T08:43:02;4.90;;;3.60;;
76814;SDS011;65768;49.906;19.384;2023-04-24T08:45:34;5.50;;;3.30;;
76814;SDS011;65768;49.906;19.384;2023-04-24T08:48:05;5.30;;;3.90;;
76814;SDS011;65768;49.906;19.384;2023-04-24T08:50:35;4.10;;;3.30;;
76814;SDS011;65768;49.906;19.384;2023-04-24T08:53:04;5.90;;;3.90;;
76814;SDS011;65768;49.906;19.384;2023-04-24T08:55:35;5.70;;;3.50;;
76814;SDS011;65768;49.906;19.384;2023-04-24T08:58:04;10.30;;;3.60;;
76814;SDS011;65768;49.906;19.384;2023-04-24T09:00:33;7.80;;;4.00;;
76814;SDS011;65768;49.906;19.384;2023-04-24T09:03:02;7.60;;;3.50;;
76814;SDS011;65768;49.906;19.384;2023-04-24T09:05:33;8.20;;;3.90;;
76814;SDS011;65768;49.906;19.384;2023-04-24T09:08:02;6.10;;;4.00;;
76814;SDS011;65768;49.906;19.384;2023-04-24T09:10:33;5.30;;;4.00;;
76814;SDS011;65768;49.906;19.384;2023-04-24T09:13:02;8.20;;;4.20;;
76814;SDS011;65768;49.906;19.384;2023-04-24T09:15:31;5.20;;;4.00;;
76814;SDS011;65768;49.906;19.384;2023-04-24T09:17:59;7.70;;;4.00;;
76814;SDS011;65768;49.906;19.384;2023-04-24T09:20:28;5.00;;;3.40;;
76814;SDS011;65768;49.906;19.384;2023-04-24T09:22:57;4.70;;;3.00;;
76814;SDS011;65768;49.906;19.384;2023-04-24T09:25:30;6.10;;;3.90;;
76814;SDS011;65768;49.906;19.384;2023-04-24T09:28:04;4.90;;;3.40;;
76814;SDS011;65768;49.906;19.384;2023-04-24T09:30:34;5.40;;;3.20;;
76814;SDS011;65768;49.906;19.384;2023-04-24T09:33:14;4.80;;;3.10;;
76814;SDS011;65768;49.906;19.384;2023-04-24T09:35:50;8.80;;;3.50;;
76814;SDS011;65768;49.906;19.384;2023-04-24T09:38:19;8.10;;;3.70;;
76814;SDS011;65768;49.906;19.384;2023-04-24T09:41:07;4.20;;;3.40;;
76814;SDS011;65768;49.906;19.384;2023-04-24T09:43:36;5.90;;;3.40;;
76814;SDS011;65768;49.906;19.384;2023-04-24T09:46:05;4.40;;;3.00;;
76814;SDS011;65768;49.906;19.384;2023-04-24T09:48:36;7.10;;;4.00;;
76814;SDS011;65768;49.906;19.384;2023-04-24T09:51:05;7.10;;;4.10;;
76814;SDS011;65768;49.906;19.384;2023-04-24T09:53:44;6.60;;;4.00;;
76814;SDS011;65768;49.906;19.384;2023-04-24T09:56:13;4.50;;;3.60;;
76814;SDS011;65768;49.906;19.384;2023-04-24T09:58:42;6.60;;;3.10;;
76814;SDS011;65768;49.906;19.384;2023-04-24T10:01:10;4.70;;;3.40;;
76814;SDS011;65768;49.906;19.384;2023-04-24T10:03:38;4.70;;;3.90;;
76814;SDS011;65768;49.906;19.384;2023-04-24T10:06:11;6.40;;;3.40;;
76814;SDS011;65768;49.906;19.384;2023-04-24T10:08:40;9.60;;;3.90;;
76814;SDS011;65768;49.906;19.384;2023-04-24T10:11:09;5.40;;;3.50;;
76814;SDS011;65768;49.906;19.384;2023-04-24T10:13:39;6.00;;;3.70;;
76814;SDS011;65768;49.906;19.384;2023-04-24T10:16:08;6.20;;;3.70;;
76814;SDS011;65768;49.906;19.384;2023-04-24T10:18:36;7.50;;;3.90;;
76814;SDS011;65768;49.906;19.384;2023-04-24T10:21:06;5.20;;;3.50;;
76814;SDS011;65768;49.906;19.384;2023-04-24T10:23:34;7.70;;;4.00;;
76814;SDS011;65768;49.906;19.384;2023-04-24T10:26:03;10.80;;;4.20;;
76814;SDS011;65768;49.906;19.384;2023-04-24T10:28:32;6.40;;;3.80;;
76814;SDS011;65768;49.906;19.384;2023-04-24T10:31:01;4.80;;;3.50;;
76814;SDS011;65768;49.906;19.384;2023-04-24T10:33:30;6.20;;;3.60;;
76814;SDS011;65768;49.906;19.384;2023-04-24T10:35:59;4.10;;;3.30;;
76814;SDS011;65768;49.906;19.384;2023-04-24T10:38:28;8.40;;;3.70;;
76814;SDS011;65768;49.906;19.384;2023-04-24T10:41:08;7.50;;;3.30;;
76814;SDS011;65768;49.906;19.384;2023-04-24T10:43:43;6.80;;;4.10;;
76814;SDS011;65768;49.906;19.384;2023-04-24T10:46:16;6.60;;;3.80;;
76814;SDS011;65768;49.906;19.384;2023-04-24T10:48:54;4.90;;;3.50;;
76814;SDS011;65768;49.906;19.384;2023-04-24T10:51:23;5.50;;;3.70;;
76814;SDS011;65768;49.906;19.384;2023-04-24T10:53:53;4.70;;;3.50;;
76814;SDS011;65768;49.906;19.384;2023-04-24T10:56:25;5.00;;;3.40;;
76814;SDS011;65768;49.906;19.384;2023-04-24T10:58:53;5.40;;;3.80;;
76814;SDS011;65768;49.906;19.384;2023-04-24T11:01:26;5.00;;;4.00;;
76814;SDS011;65768;49.906;19.384;2023-04-24T11:04:00;6.10;;;3.60;;
76814;SDS011;65768;49.906;19.384;2023-04-24T11:06:35;5.80;;;4.50;;
76814;SDS011;65768;49.906;19.384;2023-04-24T11:09:10;7.30;;;4.20;;
76814;SDS011;65768;49.906;19.384;2023-04-24T11:11:46;6.50;;;4.00;;
76814;SDS011;65768;49.906;19.384;2023-04-24T11:14:15;10.00;;;4.10;;
76814;SDS011;65768;49.906;19.384;2023-04-24T11:16:44;6.30;;;3.70;;
76814;SDS011;65768;49.906;19.384;2023-04-24T11:19:25;4.20;;;3.30;;
76814;SDS011;65768;49.906;19.384;2023-04-24T11:24:53;7.00;;;4.30;;
76814;SDS011;65768;49.906;19.384;2023-04-24T11:27:21;7.80;;;4.80;;
76814;SDS011;65768;49.906;19.384;2023-04-24T11:34:57;5.20;;;3.60;;
76814;SDS011;65768;49.906;19.384;2023-04-24T11:37:30;6.60;;;3.80;;
76814;SDS011;65768;49.906;19.384;2023-04-24T11:40:10;7.00;;;4.10;;
76814;SDS011;65768;49.906;19.384;2023-04-24T11:42:43;7.10;;;4.70;;
76814;SDS011;65768;49.906;19.384;2023-04-24T11:45:22;9.50;;;4.90;;
76814;SDS011;65768;49.906;19.384;2023-04-24T11:47:54;9.40;;;4.70;;
76814;SDS011;65768;49.906;19.384;2023-04-24T11:50:24;5.60;;;3.80;;
76814;SDS011;65768;49.906;19.384;2023-04-24T11:52:56;7.20;;;4.10;;
76814;SDS011;65768;49.906;19.384;2023-04-24T11:55:29;5.70;;;5.10;;
76814;SDS011;65768;49.906;19.384;2023-04-24T11:57:59;5.40;;;3.60;;
76814;SDS011;65768;49.906;19.384;2023-04-24T12:00:39;6.30;;;3.80;;
76814;SDS011;65768;49.906;19.384;2023-04-24T12:03:08;7.60;;;4.10;;
76814;SDS011;65768;49.906;19.384;2023-04-24T12:05:40;7.20;;;4.40;;
76814;SDS011;65768;49.906;19.384;2023-04-24T12:08:12;5.60;;;3.80;;
76814;SDS011;65768;49.906;19.384;2023-04-24T12:10:54;5.50;;;3.80;;
76814;SDS011;65768;49.906;19.384;2023-04-24T12:13:25;7.50;;;4.00;;
76814;SDS011;65768;49.906;19.384;2023-04-24T12:15:56;6.80;;;4.10;;
76814;SDS011;65768;49.906;19.384;2023-04-24T12:18:25;6.30;;;3.90;;
76814;SDS011;65768;49.906;19.384;2023-04-24T12:21:16;6.70;;;4.00;;
76814;SDS011;65768;49.906;19.384;2023-04-24T12:23:48;5.60;;;3.30;;
76814;SDS011;65768;49.906;19.384;2023-04-24T12:26:19;4.70;;;4.00;;
76814;SDS011;65768;49.906;19.384;2023-04-24T12:28:49;6.60;;;3.60;;
76814;SDS011;65768;49.906;19.384;2023-04-24T12:31:18;8.70;;;3.40;;
76814;SDS011;65768;49.906;19.384;2023-04-24T12:33:55;7.60;;;3.90;;
76814;SDS011;65768;49.906;19.384;2023-04-24T12:36:24;4.90;;;3.70;;
76814;SDS011;65768;49.906;19.384;2023-04-24T12:38:58;4.50;;;3.80;;
76814;SDS011;65768;49.906;19.384;2023-04-24T12:44:09;5.50;;;3.70;;
76814;SDS011;65768;49.906;19.384;2023-04-24T12:46:38;4.20;;;3.00;;
76814;SDS011;65768;49.906;19.384;2023-04-24T12:49:09;5.10;;;3.00;;
76814;SDS011;65768;49.906;19.384;2023-04-24T12:51:58;4.50;;;2.50;;
76814;SDS011;65768;49.906;19.384;2023-04-24T12:54:38;3.90;;;2.10;;
76814;SDS011;65768;49.906;19.384;2023-04-24T12:57:21;3.70;;;2.40;;
76814;SDS011;65768;49.906;19.384;2023-04-24T13:00:01;4.90;;;2.30;;
76814;SDS011;65768;49.906;19.384;2023-04-24T13:02:39;4.70;;;1.80;;
76814;SDS011;65768;49.906;19.384;2023-04-24T13:05:34;3.30;;;2.10;;
76814;SDS011;65768;49.906;19.384;2023-04-24T13:08:15;2.70;;;2.00;;
76814;SDS011;65768;49.906;19.384;2023-04-24T13:10:50;5.80;;;1.90;;
76814;SDS011;65768;49.906;19.384;2023-04-24T13:15:57;3.10;;;1.70;;
76814;SDS011;65768;49.906;19.384;2023-04-24T13:18:31;3.10;;;1.80;;
76814;SDS011;65768;49.906;19.384;2023-04-24T13:21:06;3.90;;;1.60;;
76814;SDS011;65768;49.906;19.384;2023-04-24T13:23:37;3.00;;;1.40;;
76814;SDS011;65768;49.906;19.384;2023-04-24T13:26:05;2.00;;;1.10;;
76814;SDS011;65768;49.906;19.384;2023-04-24T13:28:35;4.20;;;1.90;;
76814;SDS011;65768;49.906;19.384;2023-04-24T13:31:07;2.70;;;1.40;;
76814;SDS011;65768;49.906;19.384;2023-04-24T13:33:38;5.50;;;1.50;;
76814;SDS011;65768;49.906;19.384;2023-04-24T13:36:12;7.60;;;1.60;;
76814;SDS011;65768;49.906;19.384;2023-04-24T13:38:45;2.60;;;1.20;;
76814;SDS011;65768;49.906;19.384;2023-04-24T13:41:13;2.40;;;1.70;;
76814;SDS011;65768;49.906;19.384;2023-04-24T13:43:45;4.30;;;1.40;;
76814;SDS011;65768;49.906;19.384;2023-04-24T13:46:14;2.10;;;1.20;;
76814;SDS011;65768;49.906;19.384;2023-04-24T13:48:45;2.10;;;1.10;;
76814;SDS011;65768;49.906;19.384;2023-04-24T13:51:19;1.70;;;0.90;;
76814;SDS011;65768;49.906;19.384;2023-04-24T13:53:51;2.40;;;1.20;;
76814;SDS011;65768;49.906;19.384;2023-04-24T13:56:25;1.90;;;0.90;;
76814;SDS011;65768;49.906;19.384;2023-04-24T13:58:59;3.30;;;1.00;;
76814;SDS011;65768;49.906;19.384;2023-04-24T14:01:31;2.20;;;0.80;;
76814;SDS011;65768;49.906;19.384;2023-04-24T14:04:08;1.60;;;1.10;;
76814;SDS011;65768;49.906;19.384;2023-04-24T14:06:44;3.30;;;1.40;;
76814;SDS011;65768;49.906;19.384;2023-04-24T14:09:17;1.60;;;0.90;;
76814;SDS011;65768;49.906;19.384;2023-04-24T14:11:55;3.20;;;1.40;;
76814;SDS011;65768;49.906;19.384;2023-04-24T14:14:41;2.60;;;1.50;;
76814;SDS011;65768;49.906;19.384;2023-04-24T14:17:15;2.60;;;1.30;;
76814;SDS011;65768;49.906;19.384;2023-04-24T14:19:46;2.50;;;1.50;;
76814;SDS011;65768;49.906;19.384;2023-04-24T14:27:53;2.50;;;1.90;;
76814;SDS011;65768;49.906;19.384;2023-04-24T14:30:25;3.50;;;2.10;;
76814;SDS011;65768;49.906;19.384;2023-04-24T14:35:51;4.30;;;2.10;;
76814;SDS011;65768;49.906;19.384;2023-04-24T14:38:25;3.60;;;2.00;;
76814;SDS011;65768;49.906;19.384;2023-04-24T14:41:01;2.90;;;1.80;;
76814;SDS011;65768;49.906;19.384;2023-04-24T14:43:40;4.20;;;1.90;;
76814;SDS011;65768;49.906;19.384;2023-04-24T14:46:21;2.10;;;1.50;;
76814;SDS011;65768;49.906;19.384;2023-04-24T14:48:58;2.00;;;1.40;;
76814;SDS011;65768;49.906;19.384;2023-04-24T14:51:42;3.10;;;1.00;;
76814;SDS011;65768;49.906;19.384;2023-04-24T14:54:54;1.80;;;1.20;;
76814;SDS011;65768;49.906;19.384;2023-04-24T14:57:30;1.40;;;1.00;;
76814;SDS011;65768;49.906;19.384;2023-04-24T15:00:13;1.40;;;0.90;;
76814;SDS011;65768;49.906;19.384;2023-04-24T15:03:06;3.60;;;1.00;;
76814;SDS011;65768;49.906;19.384;2023-04-24T15:05:36;1.60;;;1.10;;
76814;SDS011;65768;49.906;19.384;2023-04-24T15:08:14;1.20;;;0.80;;
76814;SDS011;65768;49.906;19.384;2023-04-24T15:10:46;1.40;;;0.80;;
76814;SDS011;65768;49.906;19.384;2023-04-24T15:13:22;1.70;;;0.90;;
76814;SDS011;65768;49.906;19.384;2023-04-24T15:16:00;1.30;;;0.80;;
76814;SDS011;65768;49.906;19.384;2023-04-24T15:18:34;1.80;;;1.10;;
76814;SDS011;65768;49.906;19.384;2023-04-24T15:21:09;2.10;;;1.10;;
76814;SDS011;65768;49.906;19.384;2023-04-24T15:23:41;2.40;;;1.40;;
76814;SDS011;65768;49.906;19.384;2023-04-24T15:26:18;1.70;;;1.20;;
76814;SDS011;65768;49.906;19.384;2023-04-24T15:31:28;2.30;;;1.20;;
76814;SDS011;65768;49.906;19.384;2023-04-24T15:34:16;2.70;;;1.70;;
76814;SDS011;65768;49.906;19.384;2023-04-24T15:36:58;2.60;;;1.50;;
76814;SDS011;65768;49.906;19.384;2023-04-24T15:39:48;2.00;;;1.50;;
76814;SDS011;65768;49.906;19.384;2023-04-24T15:42:27;2.60;;;1.60;;
76814;SDS011;65768;49.906;19.384;2023-04-24T15:45:03;2.70;;;1.30;;
76814;SDS011;65768;49.906;19.384;2023-04-24T15:48:13;2.40;;;1.60;;
76814;SDS011;65768;49.906;19.384;2023-04-24T15:53:47;2.90;;;1.60;;
76814;SDS011;65768;49.906;19.384;2023-04-24T15:56:44;2.40;;;1.50;;
76814;SDS011;65768;49.906;19.384;2023-04-24T16:02:08;2.90;;;1.70;;
76814;SDS011;65768;49.906;19.384;2023-04-24T16:04:59;2.70;;;1.50;;
76814;SDS011;65768;49.906;19.384;2023-04-24T16:07:43;2.80;;;1.70;;
76814;SDS011;65768;49.906;19.384;2023-04-24T16:10:46;2.00;;;1.30;;
76814;SDS011;65768;49.906;19.384;2023-04-24T16:25:45;3.10;;;1.20;;
76814;SDS011;65768;49.906;19.384;2023-04-24T16:37:55;2.00;;;1.50;;
76814;SDS011;65768;49.906;19.384;2023-04-24T16:40:36;2.50;;;1.40;;
76814;SDS011;65768;49.906;19.384;2023-04-24T16:43:30;2.30;;;1.50;;
76814;SDS011;65768;49.906;19.384;2023-04-24T17:05:29;2.80;;;2.20;;
76814;SDS011;65768;49.906;19.384;2023-04-24T17:18:27;5.00;;;2.50;;
76814;SDS011;65768;49.906;19.384;2023-04-24T17:31:06;9.50;;;4.60;;
76814;SDS011;65768;49.906;19.384;2023-04-24T17:33:50;8.00;;;4.40;;
76814;SDS011;65768;49.906;19.384;2023-04-24T17:42:59;9.00;;;5.00;;
76814;SDS011;65768;49.906;19.384;2023-04-24T17:49:30;11.40;;;4.80;;
76814;SDS011;65768;49.906;19.384;2023-04-24T18:05:11;9.60;;;4.80;;
76814;SDS011;65768;49.906;19.384;2023-04-24T19:02:15;13.20;;;6.60;;
76814;SDS011;65768;49.906;19.384;2023-04-24T19:08:00;14.70;;;7.70;;
76814;SDS011;65768;49.906;19.384;2023-04-24T19:14:09;16.70;;;9.10;;
76814;SDS011;65768;49.906;19.384;2023-04-24T19:17:05;19.50;;;9.50;;
76814;SDS011;65768;49.906;19.384;2023-04-24T19:20:03;14.60;;;8.10;;
76814;SDS011;65768;49.906;19.384;2023-04-24T19:25:53;15.50;;;9.30;;
76814;SDS011;65768;49.906;19.384;2023-04-24T19:35:05;20.90;;;11.70;;
76814;SDS011;65768;49.906;19.384;2023-04-24T19:38:15;16.80;;;10.10;;
76814;SDS011;65768;49.906;19.384;2023-04-24T19:53:45;23.80;;;13.70;;
76814;SDS011;65768;49.906;19.384;2023-04-24T22:06:05;11.30;;;6.90;;
76814;SDS011;65768;49.906;19.384;2023-04-24T22:29:21;18.80;;;10.80;;
76814;SDS011;65768;49.906;19.384;2023-04-24T22:36:01;16.50;;;11.00;;
76814;SDS011;65768;49.906;19.384;2023-04-24T23:12:02;13.00;;;7.50;;
76814;SDS011;65768;49.906;19.384;2023-04-24T23:18:32;11.00;;;6.80;;
76814;SDS011;65768;49.906;19.384;2023-04-24T23:31:54;11.60;;;6.50;;
